sensor_id;sensor_type;location;lat;lon;timestamp;P1;durP1;ratioP1;P2;durP2;ratioP2
65469;SDS011;52067;50.710;14.492;2023-03-25T00:02:17;21.35;;;9.15;;
65469;SDS011;52067;50.710;14.492;2023-03-25T00:04:43;29.63;;;13.00;;
65469;SDS011;52067;50.710;14.492;2023-03-25T00:07:08;23.35;;;9.23;;
65469;SDS011;52067;50.710;14.492;2023-03-25T00:09:34;23.50;;;9.57;;
65469;SDS011;52067;50.710;14.492;2023-03-25T00:12:00;29.13;;;11.82;;
65469;SDS011;52067;50.710;14.492;2023-03-25T00:14:25;25.13;;;11.90;;
65469;SDS011;52067;50.710;14.492;2023-03-25T00:16:51;27.88;;;13.35;;
65469;SDS011;52067;50.710;14.492;2023-03-25T00:19:17;28.67;;;12.80;;
65469;SDS011;52067;50.710;14.492;2023-03-25T00:21:46;25.45;;;11.90;;
65469;SDS011;52067;50.710;14.492;2023-03-25T00:24:14;29.27;;;12.85;;
65469;SDS011;52067;50.710;14.492;2023-03-25T00:26:42;26.77;;;12.43;;
65469;SDS011;52067;50.710;14.492;2023-03-25T00:29:12;26.08;;;13.40;;
65469;SDS011;52067;50.710;14.492;2023-03-25T00:31:39;24.70;;;12.75;;
65469;SDS011;52067;50.710;14.492;2023-03-25T00:34:04;29.38;;;13.75;;
65469;SDS011;52067;50.710;14.492;2023-03-25T00:36:30;27.27;;;12.50;;
65469;SDS011;52067;50.710;14.492;2023-03-25T00:38:55;26.45;;;12.73;;
65469;SDS011;52067;50.710;14.492;2023-03-25T00:41:23;26.15;;;11.48;;
65469;SDS011;52067;50.710;14.492;2023-03-25T00:43:53;22.33;;;11.15;;
65469;SDS011;52067;50.710;14.492;2023-03-25T00:46:20;30.67;;;12.60;;
65469;SDS011;52067;50.710;14.492;2023-03-25T00:48:47;27.85;;;13.07;;
65469;SDS011;52067;50.710;14.492;2023-03-25T00:51:13;23.95;;;11.65;;
65469;SDS011;52067;50.710;14.492;2023-03-25T00:53:43;20.20;;;11.02;;
65469;SDS011;52067;50.710;14.492;2023-03-25T00:56:09;24.35;;;11.52;;
65469;SDS011;52067;50.710;14.492;2023-03-25T00:58:36;28.92;;;12.52;;
65469;SDS011;52067;50.710;14.492;2023-03-25T01:01:12;23.30;;;11.52;;
65469;SDS011;52067;50.710;14.492;2023-03-25T01:03:39;22.70;;;11.90;;
65469;SDS011;52067;50.710;14.492;2023-03-25T01:06:16;51.72;;;23.85;;
65469;SDS011;52067;50.710;14.492;2023-03-25T01:08:42;28.17;;;13.60;;
65469;SDS011;52067;50.710;14.492;2023-03-25T01:11:42;30.77;;;13.52;;
65469;SDS011;52067;50.710;14.492;2023-03-25T01:14:03;25.25;;;11.65;;
65469;SDS011;52067;50.710;14.492;2023-03-25T01:16:30;25.75;;;11.57;;
65469;SDS011;52067;50.710;14.492;2023-03-25T01:18:56;10.27;;;4.60;;
65469;SDS011;52067;50.710;14.492;2023-03-25T01:21:21;10.48;;;4.47;;
65469;SDS011;52067;50.710;14.492;2023-03-25T01:23:47;8.63;;;4.32;;
65469;SDS011;52067;50.710;14.492;2023-03-25T01:26:13;9.75;;;4.03;;
65469;SDS011;52067;50.710;14.492;2023-03-25T01:28:39;9.52;;;4.22;;
65469;SDS011;52067;50.710;14.492;2023-03-25T01:31:06;6.38;;;3.35;;
65469;SDS011;52067;50.710;14.492;2023-03-25T01:33:32;9.18;;;4.10;;
65469;SDS011;52067;50.710;14.492;2023-03-25T01:35:58;8.35;;;4.07;;
65469;SDS011;52067;50.710;14.492;2023-03-25T01:38:24;10.90;;;3.80;;
65469;SDS011;52067;50.710;14.492;2023-03-25T01:40:51;16.00;;;3.90;;
65469;SDS011;52067;50.710;14.492;2023-03-25T01:43:17;8.70;;;3.83;;
65469;SDS011;52067;50.710;14.492;2023-03-25T01:45:43;7.03;;;3.40;;
65469;SDS011;52067;50.710;14.492;2023-03-25T01:48:14;11.30;;;3.03;;
65469;SDS011;52067;50.710;14.492;2023-03-25T01:50:44;10.35;;;3.33;;
65469;SDS011;52067;50.710;14.492;2023-03-25T01:53:16;7.15;;;3.22;;
65469;SDS011;52067;50.710;14.492;2023-03-25T01:55:41;8.13;;;3.30;;
65469;SDS011;52067;50.710;14.492;2023-03-25T01:58:09;7.35;;;3.45;;
65469;SDS011;52067;50.710;14.492;2023-03-25T02:00:38;6.90;;;3.20;;
65469;SDS011;52067;50.710;14.492;2023-03-25T02:03:05;9.20;;;3.00;;
65469;SDS011;52067;50.710;14.492;2023-03-25T02:05:35;6.30;;;2.75;;
65469;SDS011;52067;50.710;14.492;2023-03-25T02:08:06;6.43;;;2.83;;
65469;SDS011;52067;50.710;14.492;2023-03-25T02:10:33;7.65;;;3.40;;
65469;SDS011;52067;50.710;14.492;2023-03-25T02:13:00;4.93;;;3.05;;
65469;SDS011;52067;50.710;14.492;2023-03-25T02:15:26;6.57;;;3.38;;
65469;SDS011;52067;50.710;14.492;2023-03-25T02:20:57;7.90;;;3.30;;
65469;SDS011;52067;50.710;14.492;2023-03-25T02:23:46;6.90;;;3.20;;
65469;SDS011;52067;50.710;14.492;2023-03-25T02:29:24;11.05;;;3.00;;
65469;SDS011;52067;50.710;14.492;2023-03-25T02:40:56;4.45;;;2.13;;
65469;SDS011;52067;50.710;14.492;2023-03-25T02:43:37;6.30;;;2.78;;
65469;SDS011;52067;50.710;14.492;2023-03-25T02:46:09;7.53;;;3.20;;
65469;SDS011;52067;50.710;14.492;2023-03-25T02:48:41;5.05;;;2.95;;
65469;SDS011;52067;50.710;14.492;2023-03-25T02:51:31;7.35;;;3.35;;
65469;SDS011;52067;50.710;14.492;2023-03-25T02:54:06;10.15;;;3.20;;
65469;SDS011;52067;50.710;14.492;2023-03-25T02:56:35;7.90;;;3.10;;
65469;SDS011;52067;50.710;14.492;2023-03-25T02:59:03;6.15;;;3.00;;
65469;SDS011;52067;50.710;14.492;2023-03-25T03:01:30;9.40;;;3.30;;
65469;SDS011;52067;50.710;14.492;2023-03-25T03:03:58;7.22;;;3.08;;
65469;SDS011;52067;50.710;14.492;2023-03-25T03:06:24;12.10;;;3.20;;
65469;SDS011;52067;50.710;14.492;2023-03-25T03:21:46;7.85;;;2.70;;
65469;SDS011;52067;50.710;14.492;2023-03-25T03:24:19;7.17;;;2.80;;
65469;SDS011;52067;50.710;14.492;2023-03-25T03:26:54;7.07;;;2.80;;
65469;SDS011;52067;50.710;14.492;2023-03-25T03:29:28;5.38;;;2.45;;
65469;SDS011;52067;50.710;14.492;2023-03-25T03:34:28;4.47;;;2.47;;
65469;SDS011;52067;50.710;14.492;2023-03-25T03:36:58;7.50;;;2.45;;
65469;SDS011;52067;50.710;14.492;2023-03-25T03:41:59;6.00;;;3.10;;
65469;SDS011;52067;50.710;14.492;2023-03-25T03:44:31;6.63;;;3.20;;
65469;SDS011;52067;50.710;14.492;2023-03-25T03:47:07;6.30;;;3.13;;
65469;SDS011;52067;50.710;14.492;2023-03-25T03:49:46;4.93;;;2.70;;
65469;SDS011;52067;50.710;14.492;2023-03-25T03:52:18;7.45;;;3.13;;
65469;SDS011;52067;50.710;14.492;2023-03-25T03:57:25;8.55;;;3.08;;
65469;SDS011;52067;50.710;14.492;2023-03-25T04:00:07;6.13;;;2.80;;
65469;SDS011;52067;50.710;14.492;2023-03-25T04:02:37;6.22;;;2.75;;
65469;SDS011;52067;50.710;14.492;2023-03-25T04:05:04;7.15;;;2.80;;
65469;SDS011;52067;50.710;14.492;2023-03-25T04:07:39;6.32;;;2.78;;
65469;SDS011;52067;50.710;14.492;2023-03-25T04:10:13;6.63;;;3.15;;
65469;SDS011;52067;50.710;14.492;2023-03-25T04:12:46;7.78;;;3.00;;
65469;SDS011;52067;50.710;14.492;2023-03-25T04:15:15;5.90;;;2.90;;
65469;SDS011;52067;50.710;14.492;2023-03-25T04:17:41;6.18;;;2.40;;
65469;SDS011;52067;50.710;14.492;2023-03-25T04:20:08;7.60;;;2.67;;
65469;SDS011;52067;50.710;14.492;2023-03-25T04:22:37;6.15;;;2.25;;
65469;SDS011;52067;50.710;14.492;2023-03-25T04:25:06;4.22;;;2.20;;
65469;SDS011;52067;50.710;14.492;2023-03-25T04:27:31;5.10;;;2.17;;
65469;SDS011;52067;50.710;14.492;2023-03-25T04:29:57;6.00;;;2.15;;
65469;SDS011;52067;50.710;14.492;2023-03-25T04:32:25;4.70;;;2.47;;
65469;SDS011;52067;50.710;14.492;2023-03-25T04:34:52;5.15;;;1.95;;
65469;SDS011;52067;50.710;14.492;2023-03-25T04:37:25;4.32;;;1.92;;
65469;SDS011;52067;50.710;14.492;2023-03-25T04:39:51;8.05;;;2.28;;
65469;SDS011;52067;50.710;14.492;2023-03-25T04:42:20;5.30;;;2.00;;
65469;SDS011;52067;50.710;14.492;2023-03-25T04:44:49;7.72;;;1.50;;
65469;SDS011;52067;50.710;14.492;2023-03-25T04:47:20;3.90;;;1.60;;
65469;SDS011;52067;50.710;14.492;2023-03-25T04:49:48;3.33;;;1.50;;
65469;SDS011;52067;50.710;14.492;2023-03-25T04:52:14;5.07;;;1.48;;
65469;SDS011;52067;50.710;14.492;2023-03-25T04:54:40;6.25;;;1.20;;
65469;SDS011;52067;50.710;14.492;2023-03-25T04:57:06;3.55;;;1.42;;
65469;SDS011;52067;50.710;14.492;2023-03-25T04:59:34;3.20;;;1.25;;
65469;SDS011;52067;50.710;14.492;2023-03-25T05:02:00;3.65;;;1.30;;
65469;SDS011;52067;50.710;14.492;2023-03-25T05:04:27;3.35;;;1.40;;
65469;SDS011;52067;50.710;14.492;2023-03-25T05:06:52;3.38;;;1.27;;
65469;SDS011;52067;50.710;14.492;2023-03-25T05:09:20;2.58;;;1.20;;
65469;SDS011;52067;50.710;14.492;2023-03-25T05:11:46;2.35;;;1.25;;
65469;SDS011;52067;50.710;14.492;2023-03-25T05:14:13;1.70;;;1.10;;
65469;SDS011;52067;50.710;14.492;2023-03-25T05:16:40;1.52;;;0.98;;
65469;SDS011;52067;50.710;14.492;2023-03-25T05:19:06;3.00;;;1.10;;
65469;SDS011;52067;50.710;14.492;2023-03-25T05:21:32;2.47;;;1.00;;
65469;SDS011;52067;50.710;14.492;2023-03-25T05:24:00;2.78;;;1.10;;
65469;SDS011;52067;50.710;14.492;2023-03-25T05:26:26;1.30;;;1.02;;
65469;SDS011;52067;50.710;14.492;2023-03-25T05:28:59;2.88;;;1.00;;
65469;SDS011;52067;50.710;14.492;2023-03-25T05:31:32;1.52;;;1.20;;
65469;SDS011;52067;50.710;14.492;2023-03-25T05:33:58;2.67;;;1.00;;
65469;SDS011;52067;50.710;14.492;2023-03-25T05:36:23;3.53;;;1.30;;
65469;SDS011;52067;50.710;14.492;2023-03-25T05:38:49;1.25;;;0.90;;
65469;SDS011;52067;50.710;14.492;2023-03-25T05:41:15;1.40;;;1.10;;
65469;SDS011;52067;50.710;14.492;2023-03-25T05:43:44;4.07;;;1.20;;
65469;SDS011;52067;50.710;14.492;2023-03-25T05:46:11;4.53;;;1.50;;
65469;SDS011;52067;50.710;14.492;2023-03-25T05:48:38;4.07;;;1.38;;
65469;SDS011;52067;50.710;14.492;2023-03-25T05:51:05;2.10;;;1.27;;
65469;SDS011;52067;50.710;14.492;2023-03-25T05:53:40;3.22;;;1.20;;
65469;SDS011;52067;50.710;14.492;2023-03-25T05:56:13;1.50;;;1.00;;
65469;SDS011;52067;50.710;14.492;2023-03-25T05:58:38;5.30;;;1.10;;
65469;SDS011;52067;50.710;14.492;2023-03-25T06:01:04;2.05;;;1.00;;
65469;SDS011;52067;50.710;14.492;2023-03-25T06:03:30;2.35;;;1.15;;
65469;SDS011;52067;50.710;14.492;2023-03-25T06:05:58;3.42;;;1.25;;
65469;SDS011;52067;50.710;14.492;2023-03-25T06:08:25;4.50;;;1.20;;
65469;SDS011;52067;50.710;14.492;2023-03-25T06:10:59;2.47;;;1.42;;
65469;SDS011;52067;50.710;14.492;2023-03-25T06:13:25;1.88;;;1.20;;
65469;SDS011;52067;50.710;14.492;2023-03-25T06:15:51;2.60;;;1.20;;
65469;SDS011;52067;50.710;14.492;2023-03-25T06:18:24;1.98;;;1.00;;
65469;SDS011;52067;50.710;14.492;2023-03-25T06:20:50;3.92;;;1.33;;
65469;SDS011;52067;50.710;14.492;2023-03-25T06:23:19;2.42;;;1.00;;
65469;SDS011;52067;50.710;14.492;2023-03-25T06:25:46;1.95;;;1.02;;
65469;SDS011;52067;50.710;14.492;2023-03-25T06:28:13;2.25;;;1.00;;
65469;SDS011;52067;50.710;14.492;2023-03-25T06:30:42;1.30;;;0.90;;
65469;SDS011;52067;50.710;14.492;2023-03-25T06:33:07;1.13;;;0.95;;
65469;SDS011;52067;50.710;14.492;2023-03-25T06:35:34;1.10;;;0.90;;
65469;SDS011;52067;50.710;14.492;2023-03-25T06:38:00;2.22;;;1.23;;
65469;SDS011;52067;50.710;14.492;2023-03-25T06:40:25;2.00;;;1.20;;
65469;SDS011;52067;50.710;14.492;2023-03-25T06:42:51;2.63;;;1.30;;
65469;SDS011;52067;50.710;14.492;2023-03-25T06:45:16;2.90;;;1.10;;
65469;SDS011;52067;50.710;14.492;2023-03-25T06:47:42;1.45;;;1.20;;
65469;SDS011;52067;50.710;14.492;2023-03-25T06:50:07;2.78;;;1.27;;
65469;SDS011;52067;50.710;14.492;2023-03-25T06:52:33;1.63;;;1.25;;
65469;SDS011;52067;50.710;14.492;2023-03-25T06:54:58;2.42;;;1.20;;
65469;SDS011;52067;50.710;14.492;2023-03-25T06:57:24;2.10;;;1.15;;
65469;SDS011;52067;50.710;14.492;2023-03-25T06:59:49;3.05;;;1.50;;
65469;SDS011;52067;50.710;14.492;2023-03-25T07:02:15;1.60;;;1.13;;
65469;SDS011;52067;50.710;14.492;2023-03-25T07:04:40;3.35;;;1.40;;
65469;SDS011;52067;50.710;14.492;2023-03-25T07:07:06;2.55;;;1.40;;
65469;SDS011;52067;50.710;14.492;2023-03-25T07:09:33;1.73;;;1.30;;
65469;SDS011;52067;50.710;14.492;2023-03-25T07:11:58;4.32;;;1.35;;
65469;SDS011;52067;50.710;14.492;2023-03-25T07:14:24;2.15;;;1.30;;
65469;SDS011;52067;50.710;14.492;2023-03-25T07:16:49;4.45;;;1.40;;
65469;SDS011;52067;50.710;14.492;2023-03-25T07:19:15;3.35;;;1.30;;
65469;SDS011;52067;50.710;14.492;2023-03-25T07:21:40;3.05;;;1.00;;
65469;SDS011;52067;50.710;14.492;2023-03-25T07:24:06;4.38;;;1.10;;
65469;SDS011;52067;50.710;14.492;2023-03-25T07:26:31;2.85;;;1.10;;
65469;SDS011;52067;50.710;14.492;2023-03-25T07:28:57;3.17;;;1.02;;
65469;SDS011;52067;50.710;14.492;2023-03-25T07:31:22;0.82;;;0.82;;
65469;SDS011;52067;50.710;14.492;2023-03-25T07:33:47;1.45;;;0.90;;
65469;SDS011;52067;50.710;14.492;2023-03-25T07:36:13;2.25;;;0.90;;
65469;SDS011;52067;50.710;14.492;2023-03-25T07:38:38;3.05;;;1.02;;
65469;SDS011;52067;50.710;14.492;2023-03-25T07:41:08;3.38;;;1.00;;
65469;SDS011;52067;50.710;14.492;2023-03-25T07:43:36;1.48;;;0.90;;
65469;SDS011;52067;50.710;14.492;2023-03-25T07:46:02;1.35;;;0.90;;
65469;SDS011;52067;50.710;14.492;2023-03-25T07:48:27;1.48;;;0.88;;
65469;SDS011;52067;50.710;14.492;2023-03-25T07:50:53;2.13;;;0.90;;
65469;SDS011;52067;50.710;14.492;2023-03-25T07:53:18;3.50;;;1.05;;
65469;SDS011;52067;50.710;14.492;2023-03-25T07:55:44;1.42;;;0.82;;
65469;SDS011;52067;50.710;14.492;2023-03-25T07:58:10;2.75;;;0.70;;
65469;SDS011;52067;50.710;14.492;2023-03-25T08:00:36;0.95;;;0.90;;
65469;SDS011;52067;50.710;14.492;2023-03-25T08:03:02;3.45;;;1.05;;
65469;SDS011;52067;50.710;14.492;2023-03-25T08:05:28;1.92;;;1.00;;
65469;SDS011;52067;50.710;14.492;2023-03-25T08:07:54;2.28;;;1.00;;
65469;SDS011;52067;50.710;14.492;2023-03-25T08:10:24;2.15;;;0.93;;
65469;SDS011;52067;50.710;14.492;2023-03-25T08:12:50;1.73;;;0.80;;
65469;SDS011;52067;50.710;14.492;2023-03-25T08:15:17;2.45;;;0.90;;
65469;SDS011;52067;50.710;14.492;2023-03-25T08:17:43;3.92;;;1.00;;
65469;SDS011;52067;50.710;14.492;2023-03-25T08:20:08;2.38;;;0.98;;
65469;SDS011;52067;50.710;14.492;2023-03-25T08:22:35;2.03;;;0.88;;
65469;SDS011;52067;50.710;14.492;2023-03-25T08:25:00;4.47;;;1.02;;
65469;SDS011;52067;50.710;14.492;2023-03-25T08:27:26;2.13;;;0.80;;
65469;SDS011;52067;50.710;14.492;2023-03-25T08:29:51;2.67;;;1.08;;
65469;SDS011;52067;50.710;14.492;2023-03-25T08:32:21;2.47;;;1.20;;
65469;SDS011;52067;50.710;14.492;2023-03-25T08:34:47;2.20;;;0.98;;
65469;SDS011;52067;50.710;14.492;2023-03-25T08:37:13;2.40;;;0.95;;
65469;SDS011;52067;50.710;14.492;2023-03-25T08:39:39;6.32;;;1.13;;
65469;SDS011;52067;50.710;14.492;2023-03-25T08:42:09;2.83;;;1.33;;
65469;SDS011;52067;50.710;14.492;2023-03-25T08:44:36;3.03;;;1.40;;
65469;SDS011;52067;50.710;14.492;2023-03-25T08:47:02;6.28;;;1.60;;
65469;SDS011;52067;50.710;14.492;2023-03-25T08:49:27;5.60;;;1.65;;
65469;SDS011;52067;50.710;14.492;2023-03-25T08:51:53;3.38;;;1.35;;
65469;SDS011;52067;50.710;14.492;2023-03-25T08:54:18;2.05;;;1.10;;
65469;SDS011;52067;50.710;14.492;2023-03-25T08:56:44;1.95;;;1.15;;
65469;SDS011;52067;50.710;14.492;2023-03-25T08:59:09;2.75;;;1.25;;
65469;SDS011;52067;50.710;14.492;2023-03-25T09:01:36;3.72;;;1.20;;
65469;SDS011;52067;50.710;14.492;2023-03-25T09:04:02;2.85;;;1.30;;
65469;SDS011;52067;50.710;14.492;2023-03-25T09:06:27;2.20;;;1.20;;
65469;SDS011;52067;50.710;14.492;2023-03-25T09:08:53;3.20;;;1.35;;
65469;SDS011;52067;50.710;14.492;2023-03-25T09:11:20;2.15;;;1.27;;
65469;SDS011;52067;50.710;14.492;2023-03-25T09:13:45;4.78;;;1.45;;
65469;SDS011;52067;50.710;14.492;2023-03-25T09:16:11;2.25;;;1.30;;
65469;SDS011;52067;50.710;14.492;2023-03-25T09:18:36;1.92;;;1.17;;
65469;SDS011;52067;50.710;14.492;2023-03-25T09:21:02;3.30;;;1.25;;
65469;SDS011;52067;50.710;14.492;2023-03-25T09:23:28;1.48;;;1.17;;
65469;SDS011;52067;50.710;14.492;2023-03-25T09:25:53;1.38;;;1.00;;
65469;SDS011;52067;50.710;14.492;2023-03-25T09:28:23;1.52;;;1.10;;
65469;SDS011;52067;50.710;14.492;2023-03-25T09:30:48;2.38;;;1.20;;
65469;SDS011;52067;50.710;14.492;2023-03-25T09:33:14;1.90;;;1.25;;
65469;SDS011;52067;50.710;14.492;2023-03-25T09:35:39;1.67;;;1.02;;
65469;SDS011;52067;50.710;14.492;2023-03-25T09:38:05;1.52;;;1.15;;
65469;SDS011;52067;50.710;14.492;2023-03-25T09:40:32;1.13;;;1.00;;
65469;SDS011;52067;50.710;14.492;2023-03-25T09:45:31;1.13;;;1.02;;
65469;SDS011;52067;50.710;14.492;2023-03-25T09:50:45;4.03;;;1.38;;
65469;SDS011;52067;50.710;14.492;2023-03-25T09:55:46;1.75;;;1.20;;
65469;SDS011;52067;50.710;14.492;2023-03-25T10:03:44;1.77;;;1.17;;
65469;SDS011;52067;50.710;14.492;2023-03-25T10:06:24;2.10;;;1.35;;
65469;SDS011;52067;50.710;14.492;2023-03-25T10:14:26;1.98;;;1.20;;
65469;SDS011;52067;50.710;14.492;2023-03-25T10:17:12;1.90;;;1.40;;
65469;SDS011;52067;50.710;14.492;2023-03-25T10:25:21;2.67;;;1.30;;
65469;SDS011;52067;50.710;14.492;2023-03-25T10:27:50;3.08;;;1.38;;
65469;SDS011;52067;50.710;14.492;2023-03-25T10:30:50;1.42;;;1.25;;
65469;SDS011;52067;50.710;14.492;2023-03-25T10:33:27;1.50;;;1.13;;
65469;SDS011;52067;50.710;14.492;2023-03-25T10:35:53;1.67;;;1.20;;
65469;SDS011;52067;50.710;14.492;2023-03-25T10:38:22;1.60;;;1.25;;
65469;SDS011;52067;50.710;14.492;2023-03-25T10:41:34;3.47;;;1.42;;
65469;SDS011;52067;50.710;14.492;2023-03-25T10:43:54;5.03;;;1.40;;
65469;SDS011;52067;50.710;14.492;2023-03-25T10:46:33;2.28;;;1.20;;
65469;SDS011;52067;50.710;14.492;2023-03-25T10:49:03;1.70;;;1.10;;
65469;SDS011;52067;50.710;14.492;2023-03-25T10:51:29;4.45;;;1.50;;
65469;SDS011;52067;50.710;14.492;2023-03-25T10:53:57;1.48;;;1.15;;
65469;SDS011;52067;50.710;14.492;2023-03-25T10:56:24;2.15;;;1.38;;
65469;SDS011;52067;50.710;14.492;2023-03-25T10:58:54;2.25;;;1.30;;
65469;SDS011;52067;50.710;14.492;2023-03-25T11:01:27;2.13;;;1.20;;
65469;SDS011;52067;50.710;14.492;2023-03-25T11:04:00;2.03;;;1.30;;
65469;SDS011;52067;50.710;14.492;2023-03-25T11:06:29;2.10;;;1.27;;
65469;SDS011;52067;50.710;14.492;2023-03-25T11:11:37;2.55;;;1.20;;
65469;SDS011;52067;50.710;14.492;2023-03-25T11:14:03;2.13;;;1.13;;
65469;SDS011;52067;50.710;14.492;2023-03-25T11:16:30;1.95;;;1.20;;
65469;SDS011;52067;50.710;14.492;2023-03-25T11:18:59;1.85;;;1.20;;
65469;SDS011;52067;50.710;14.492;2023-03-25T11:21:29;1.15;;;1.00;;
65469;SDS011;52067;50.710;14.492;2023-03-25T11:23:56;1.20;;;1.10;;
65469;SDS011;52067;50.710;14.492;2023-03-25T11:26:26;1.60;;;1.27;;
65469;SDS011;52067;50.710;14.492;2023-03-25T11:29:01;1.25;;;1.10;;
65469;SDS011;52067;50.710;14.492;2023-03-25T11:31:36;2.25;;;1.27;;
65469;SDS011;52067;50.710;14.492;2023-03-25T11:36:47;2.25;;;1.10;;
65469;SDS011;52067;50.710;14.492;2023-03-25T11:41:47;2.22;;;1.40;;
65469;SDS011;52067;50.710;14.492;2023-03-25T11:44:22;3.20;;;1.27;;
65469;SDS011;52067;50.710;14.492;2023-03-25T11:46:57;1.30;;;0.90;;
65469;SDS011;52067;50.710;14.492;2023-03-25T11:49:28;2.28;;;1.30;;
65469;SDS011;52067;50.710;14.492;2023-03-25T11:51:59;1.30;;;1.10;;
65469;SDS011;52067;50.710;14.492;2023-03-25T11:54:29;2.20;;;1.30;;
65469;SDS011;52067;50.710;14.492;2023-03-25T11:56:56;2.47;;;1.17;;
65469;SDS011;52067;50.710;14.492;2023-03-25T12:01:49;2.67;;;1.30;;
65469;SDS011;52067;50.710;14.492;2023-03-25T12:04:18;2.40;;;1.23;;
65469;SDS011;52067;50.710;14.492;2023-03-25T12:07:27;1.88;;;1.20;;
65469;SDS011;52067;50.710;14.492;2023-03-25T12:09:34;1.55;;;1.02;;
65469;SDS011;52067;50.710;14.492;2023-03-25T12:14:59;1.85;;;1.13;;
65469;SDS011;52067;50.710;14.492;2023-03-25T12:36:52;1.15;;;0.93;;
65469;SDS011;52067;50.710;14.492;2023-03-25T12:42:24;2.75;;;1.30;;
65469;SDS011;52067;50.710;14.492;2023-03-25T12:53:39;2.50;;;1.05;;
65469;SDS011;52067;50.710;14.492;2023-03-25T12:56:21;3.50;;;1.13;;
65469;SDS011;52067;50.710;14.492;2023-03-25T13:04:35;2.50;;;1.58;;
65469;SDS011;52067;50.710;14.492;2023-03-25T13:07:10;2.22;;;1.17;;
65469;SDS011;52067;50.710;14.492;2023-03-25T13:09:47;2.40;;;1.20;;
65469;SDS011;52067;50.710;14.492;2023-03-25T13:17:46;1.73;;;1.02;;
65469;SDS011;52067;50.710;14.492;2023-03-25T13:20:15;3.85;;;1.50;;
65469;SDS011;52067;50.710;14.492;2023-03-25T13:22:43;2.50;;;1.40;;
65469;SDS011;52067;50.710;14.492;2023-03-25T13:26:00;1.30;;;1.20;;
65469;SDS011;52067;50.710;14.492;2023-03-25T13:28:22;2.88;;;1.10;;
65469;SDS011;52067;50.710;14.492;2023-03-25T13:30:53;1.48;;;1.20;;
65469;SDS011;52067;50.710;14.492;2023-03-25T13:33:31;2.67;;;1.23;;
65469;SDS011;52067;50.710;14.492;2023-03-25T13:36:04;1.17;;;1.00;;
65469;SDS011;52067;50.710;14.492;2023-03-25T13:38:33;2.50;;;1.30;;
65469;SDS011;52067;50.710;14.492;2023-03-25T13:41:11;4.13;;;1.70;;
65469;SDS011;52067;50.710;14.492;2023-03-25T13:43:48;5.05;;;2.55;;
65469;SDS011;52067;50.710;14.492;2023-03-25T13:46:20;2.17;;;1.50;;
65469;SDS011;52067;50.710;14.492;2023-03-25T13:48:52;1.85;;;1.17;;
65469;SDS011;52067;50.710;14.492;2023-03-25T13:51:20;1.10;;;0.93;;
65469;SDS011;52067;50.710;14.492;2023-03-25T13:53:55;2.15;;;1.70;;
65469;SDS011;52067;50.710;14.492;2023-03-25T13:56:33;3.22;;;1.60;;
65469;SDS011;52067;50.710;14.492;2023-03-25T14:05:04;1.92;;;1.20;;
65469;SDS011;52067;50.710;14.492;2023-03-25T14:10:51;1.95;;;1.20;;
65469;SDS011;52067;50.710;14.492;2023-03-25T14:13:46;3.50;;;1.20;;
65469;SDS011;52067;50.710;14.492;2023-03-25T14:16:36;2.55;;;1.30;;
65469;SDS011;52067;50.710;14.492;2023-03-25T14:19:09;2.38;;;1.20;;
65469;SDS011;52067;50.710;14.492;2023-03-25T14:24:11;1.45;;;1.10;;
65469;SDS011;52067;50.710;14.492;2023-03-25T14:26:55;2.50;;;1.30;;
65469;SDS011;52067;50.710;14.492;2023-03-25T14:34:33;1.83;;;1.10;;
65469;SDS011;52067;50.710;14.492;2023-03-25T14:44:32;2.22;;;1.27;;
65469;SDS011;52067;50.710;14.492;2023-03-25T14:47:00;2.20;;;1.23;;
65469;SDS011;52067;50.710;14.492;2023-03-25T14:52:49;1.35;;;0.95;;
65469;SDS011;52067;50.710;14.492;2023-03-25T14:57:50;2.22;;;1.00;;
65469;SDS011;52067;50.710;14.492;2023-03-25T15:00:29;3.00;;;1.55;;
65469;SDS011;52067;50.710;14.492;2023-03-25T15:05:35;3.25;;;1.38;;
65469;SDS011;52067;50.710;14.492;2023-03-25T15:12:59;2.90;;;1.10;;
65469;SDS011;52067;50.710;14.492;2023-03-25T15:16:14;3.35;;;1.23;;
65469;SDS011;52067;50.710;14.492;2023-03-25T15:19:08;2.20;;;1.02;;
65469;SDS011;52067;50.710;14.492;2023-03-25T15:31:44;2.58;;;1.20;;
65469;SDS011;52067;50.710;14.492;2023-03-25T15:48:39;6.07;;;1.10;;
65469;SDS011;52067;50.710;14.492;2023-03-25T15:51:16;2.85;;;1.02;;
65469;SDS011;52067;50.710;14.492;2023-03-25T15:56:41;1.80;;;1.05;;
65469;SDS011;52067;50.710;14.492;2023-03-25T16:01:45;2.90;;;1.02;;
65469;SDS011;52067;50.710;14.492;2023-03-25T16:04:18;1.27;;;0.90;;
65469;SDS011;52067;50.710;14.492;2023-03-25T16:06:55;2.25;;;1.05;;
65469;SDS011;52067;50.710;14.492;2023-03-25T16:09:24;1.40;;;0.70;;
65469;SDS011;52067;50.710;14.492;2023-03-25T16:11:51;2.03;;;0.90;;
65469;SDS011;52067;50.710;14.492;2023-03-25T16:14:23;2.55;;;1.08;;
65469;SDS011;52067;50.710;14.492;2023-03-25T16:16:53;1.55;;;0.90;;
65469;SDS011;52067;50.710;14.492;2023-03-25T16:19:29;1.33;;;0.88;;
65469;SDS011;52067;50.710;14.492;2023-03-25T16:24:54;1.98;;;1.10;;
65469;SDS011;52067;50.710;14.492;2023-03-25T16:27:24;1.23;;;1.00;;
65469;SDS011;52067;50.710;14.492;2023-03-25T16:29:53;1.23;;;0.90;;
65469;SDS011;52067;50.710;14.492;2023-03-25T16:32:21;1.77;;;0.85;;
65469;SDS011;52067;50.710;14.492;2023-03-25T16:34:55;1.73;;;0.85;;
65469;SDS011;52067;50.710;14.492;2023-03-25T16:37:21;1.35;;;0.90;;
65469;SDS011;52067;50.710;14.492;2023-03-25T16:39:53;1.23;;;0.85;;
65469;SDS011;52067;50.710;14.492;2023-03-25T16:42:30;1.75;;;1.20;;
65469;SDS011;52067;50.710;14.492;2023-03-25T16:44:58;2.38;;;0.93;;
65469;SDS011;52067;50.710;14.492;2023-03-25T16:47:25;1.77;;;1.00;;
65469;SDS011;52067;50.710;14.492;2023-03-25T16:49:52;4.03;;;1.13;;
65469;SDS011;52067;50.710;14.492;2023-03-25T16:52:24;1.40;;;0.80;;
65469;SDS011;52067;50.710;14.492;2023-03-25T16:57:36;1.63;;;0.77;;
65469;SDS011;52067;50.710;14.492;2023-03-25T17:00:17;1.67;;;0.95;;
65469;SDS011;52067;50.710;14.492;2023-03-25T17:02:45;1.52;;;1.00;;
65469;SDS011;52067;50.710;14.492;2023-03-25T17:05:19;1.73;;;1.08;;
65469;SDS011;52067;50.710;14.492;2023-03-25T17:07:45;4.40;;;1.02;;
65469;SDS011;52067;50.710;14.492;2023-03-25T17:10:17;6.63;;;1.40;;
65469;SDS011;52067;50.710;14.492;2023-03-25T17:12:51;3.10;;;1.20;;
65469;SDS011;52067;50.710;14.492;2023-03-25T17:15:24;4.22;;;1.08;;
65469;SDS011;52067;50.710;14.492;2023-03-25T17:17:52;3.53;;;1.30;;
65469;SDS011;52067;50.710;14.492;2023-03-25T17:20:29;4.20;;;1.55;;
65469;SDS011;52067;50.710;14.492;2023-03-25T17:23:02;4.00;;;1.58;;
65469;SDS011;52067;50.710;14.492;2023-03-25T17:28:28;3.70;;;1.50;;
65469;SDS011;52067;50.710;14.492;2023-03-25T17:36:43;3.55;;;1.50;;
65469;SDS011;52067;50.710;14.492;2023-03-25T17:39:30;4.15;;;1.45;;
65469;SDS011;52067;50.710;14.492;2023-03-25T17:44:41;2.72;;;1.42;;
65469;SDS011;52067;50.710;14.492;2023-03-25T17:47:12;3.17;;;1.60;;
65469;SDS011;52067;50.710;14.492;2023-03-25T17:49:39;4.00;;;1.30;;
65469;SDS011;52067;50.710;14.492;2023-03-25T17:52:05;1.95;;;1.35;;
65469;SDS011;52067;50.710;14.492;2023-03-25T17:54:32;2.53;;;1.58;;
65469;SDS011;52067;50.710;14.492;2023-03-25T17:56:58;4.38;;;1.98;;
65469;SDS011;52067;50.710;14.492;2023-03-25T17:59:24;5.20;;;1.83;;
65469;SDS011;52067;50.710;14.492;2023-03-25T18:01:50;3.28;;;1.60;;
65469;SDS011;52067;50.710;14.492;2023-03-25T18:04:16;5.20;;;2.08;;
65469;SDS011;52067;50.710;14.492;2023-03-25T18:06:44;4.05;;;2.03;;